<?xml version="1.0" encoding="UTF-8" standalone="no" ?>
<gpx xmlns="http://www.topografix.com/GPX/1/1" xmlns:xsi="http://www.w3.org/2001/XMLSchema-instance" xsi:schemaLocation="http://www.topografix.com/GPX/1/1 http://www.topografix.com/GPX/1/1/gpx.xsd" version="1.1" creator="VisuGPX - https://www.visugpx.com">
  <metadata>
    <name>PR24 - Formiguière  (Les Angles) 66</name>
    <desc><![CDATA[Belle rando au départ de Fourmiguières près des Angles]]></desc>
  </metadata>
  <trk>
    <name><![CDATA[13504250-LES ANGLES PR24]]></name>
    <trkseg>
      <trkpt lat="42.61383" lon="2.10245">
        <ele>1512</ele>
        <time>2021-08-05T13:44:19Z</time>
      </trkpt>
      <trkpt lat="42.61364" lon="2.10176">
        <ele>1515</ele>
        <time>2021-08-05T13:45:31Z</time>
      </trkpt>
      <trkpt lat="42.61352" lon="2.10082">
        <ele>1520</ele>
        <time>2021-08-05T13:47:05Z</time>
      </trkpt>
      <trkpt lat="42.6138" lon="2.09979">
        <ele>1525</ele>
        <time>2021-08-05T13:48:53Z</time>
      </trkpt>
      <trkpt lat="42.61396" lon="2.09532">
        <ele>1547</ele>
        <time>2021-08-05T13:56:12Z</time>
      </trkpt>
      <trkpt lat="42.61355" lon="2.09387">
        <ele>1551</ele>
        <time>2021-08-05T13:58:45Z</time>
      </trkpt>
      <trkpt lat="42.61311" lon="2.09305">
        <ele>1555</ele>
        <time>2021-08-05T14:00:25Z</time>
      </trkpt>
      <trkpt lat="42.61289" lon="2.09223">
        <ele>1560</ele>
        <time>2021-08-05T14:01:50Z</time>
      </trkpt>
      <trkpt lat="42.61263" lon="2.09142">
        <ele>1567</ele>
        <time>2021-08-05T14:03:17Z</time>
      </trkpt>
      <trkpt lat="42.61258" lon="2.08961">
        <ele>1584</ele>
        <time>2021-08-05T14:06:15Z</time>
      </trkpt>
      <trkpt lat="42.61312" lon="2.08734">
        <ele>1592</ele>
        <time>2021-08-05T14:10:09Z</time>
      </trkpt>
      <trkpt lat="42.61144" lon="2.08481">
        <ele>1623</ele>
        <time>2021-08-05T14:15:44Z</time>
      </trkpt>
      <trkpt lat="42.61201" lon="2.08266">
        <ele>1633</ele>
        <time>2021-08-05T14:19:28Z</time>
      </trkpt>
      <trkpt lat="42.61255" lon="2.08009">
        <ele>1670</ele>
        <time>2021-08-05T14:23:51Z</time>
      </trkpt>
      <trkpt lat="42.61258" lon="2.0785">
        <ele>1686</ele>
        <time>2021-08-05T14:26:27Z</time>
      </trkpt>
      <trkpt lat="42.61236" lon="2.0776">
        <ele>1700</ele>
        <time>2021-08-05T14:28:00Z</time>
      </trkpt>
      <trkpt lat="42.6123" lon="2.07635">
        <ele>1717</ele>
        <time>2021-08-05T14:30:03Z</time>
      </trkpt>
      <trkpt lat="42.61376" lon="2.07343">
        <ele>1745</ele>
        <time>2021-08-05T14:35:50Z</time>
      </trkpt>
      <trkpt lat="42.61474" lon="2.07107">
        <ele>1777</ele>
        <time>2021-08-05T14:40:16Z</time>
      </trkpt>
      <trkpt lat="42.61496" lon="2.06966">
        <ele>1810</ele>
        <time>2021-08-05T14:42:38Z</time>
      </trkpt>
      <trkpt lat="42.61604" lon="2.06876">
        <ele>1817</ele>
        <time>2021-08-05T14:45:27Z</time>
      </trkpt>
      <trkpt lat="42.61721" lon="2.0685">
        <ele>1814</ele>
        <time>2021-08-05T14:48:05Z</time>
      </trkpt>
      <trkpt lat="42.61882" lon="2.06841">
        <ele>1814</ele>
        <time>2021-08-05T14:51:40Z</time>
      </trkpt>
      <trkpt lat="42.6197" lon="2.06837">
        <ele>1814</ele>
        <time>2021-08-05T14:53:37Z</time>
      </trkpt>
      <trkpt lat="42.61911" lon="2.06789">
        <ele>1827</ele>
        <time>2021-08-05T14:55:09Z</time>
      </trkpt>
      <trkpt lat="42.61843" lon="2.0678">
        <ele>1831</ele>
        <time>2021-08-05T14:56:40Z</time>
      </trkpt>
      <trkpt lat="42.61787" lon="2.06769">
        <ele>1835</ele>
        <time>2021-08-05T14:57:56Z</time>
      </trkpt>
      <trkpt lat="42.61694" lon="2.06741">
        <ele>1848</ele>
        <time>2021-08-05T15:00:03Z</time>
      </trkpt>
      <trkpt lat="42.61611" lon="2.06745">
        <ele>1852</ele>
        <time>2021-08-05T15:01:54Z</time>
      </trkpt>
      <trkpt lat="42.61536" lon="2.06762">
        <ele>1856</ele>
        <time>2021-08-05T15:03:35Z</time>
      </trkpt>
      <trkpt lat="42.61467" lon="2.06779">
        <ele>1860</ele>
        <time>2021-08-05T15:05:09Z</time>
      </trkpt>
      <trkpt lat="42.61398" lon="2.06795">
        <ele>1865</ele>
        <time>2021-08-05T15:06:42Z</time>
      </trkpt>
      <trkpt lat="42.61303" lon="2.06803">
        <ele>1877</ele>
        <time>2021-08-05T15:08:49Z</time>
      </trkpt>
      <trkpt lat="42.61221" lon="2.06803">
        <ele>1883</ele>
        <time>2021-08-05T15:10:39Z</time>
      </trkpt>
      <trkpt lat="42.61146" lon="2.0679">
        <ele>1885</ele>
        <time>2021-08-05T15:12:20Z</time>
      </trkpt>
      <trkpt lat="42.61099" lon="2.06757">
        <ele>1889</ele>
        <time>2021-08-05T15:13:30Z</time>
      </trkpt>
      <trkpt lat="42.61068" lon="2.06729">
        <ele>1889</ele>
        <time>2021-08-05T15:14:20Z</time>
      </trkpt>
      <trkpt lat="42.6104" lon="2.06687">
        <ele>1888</ele>
        <time>2021-08-05T15:15:16Z</time>
      </trkpt>
      <trkpt lat="42.61021" lon="2.06617">
        <ele>1888</ele>
        <time>2021-08-05T15:16:29Z</time>
      </trkpt>
      <trkpt lat="42.61039" lon="2.06539">
        <ele>1892</ele>
        <time>2021-08-05T15:17:49Z</time>
      </trkpt>
      <trkpt lat="42.61104" lon="2.06462">
        <ele>1903</ele>
        <time>2021-08-05T15:19:44Z</time>
      </trkpt>
      <trkpt lat="42.61126" lon="2.06407">
        <ele>1909</ele>
        <time>2021-08-05T15:20:46Z</time>
      </trkpt>
      <trkpt lat="42.6113" lon="2.06332">
        <ele>1913</ele>
        <time>2021-08-05T15:21:59Z</time>
      </trkpt>
      <trkpt lat="42.61133" lon="2.06294">
        <ele>1917</ele>
        <time>2021-08-05T15:22:37Z</time>
      </trkpt>
      <trkpt lat="42.61119" lon="2.0624">
        <ele>1920</ele>
        <time>2021-08-05T15:23:33Z</time>
      </trkpt>
      <trkpt lat="42.6108" lon="2.06209">
        <ele>1920</ele>
        <time>2021-08-05T15:24:34Z</time>
      </trkpt>
      <trkpt lat="42.6105" lon="2.06173">
        <ele>1923</ele>
        <time>2021-08-05T15:25:27Z</time>
      </trkpt>
      <trkpt lat="42.61025" lon="2.06126">
        <ele>1924</ele>
        <time>2021-08-05T15:26:24Z</time>
      </trkpt>
      <trkpt lat="42.60997" lon="2.06095">
        <ele>1922</ele>
        <time>2021-08-05T15:27:12Z</time>
      </trkpt>
      <trkpt lat="42.6095" lon="2.06111">
        <ele>1912</ele>
        <time>2021-08-05T15:28:17Z</time>
      </trkpt>
      <trkpt lat="42.60909" lon="2.06123">
        <ele>1904</ele>
        <time>2021-08-05T15:29:13Z</time>
      </trkpt>
      <trkpt lat="42.6083" lon="2.06159">
        <ele>1890</ele>
        <time>2021-08-05T15:31:04Z</time>
      </trkpt>
      <trkpt lat="42.60783" lon="2.06205">
        <ele>1878</ele>
        <time>2021-08-05T15:32:21Z</time>
      </trkpt>
      <trkpt lat="42.60721" lon="2.06271">
        <ele>1867</ele>
        <time>2021-08-05T15:34:06Z</time>
      </trkpt>
      <trkpt lat="42.60676" lon="2.06323">
        <ele>1861</ele>
        <time>2021-08-05T15:35:25Z</time>
      </trkpt>
      <trkpt lat="42.60622" lon="2.06386">
        <ele>1847</ele>
        <time>2021-08-05T15:37:00Z</time>
      </trkpt>
      <trkpt lat="42.60582" lon="2.0645">
        <ele>1842</ele>
        <time>2021-08-05T15:38:23Z</time>
      </trkpt>
      <trkpt lat="42.60539" lon="2.06539">
        <ele>1830</ele>
        <time>2021-08-05T15:40:07Z</time>
      </trkpt>
      <trkpt lat="42.60507" lon="2.06619">
        <ele>1825</ele>
        <time>2021-08-05T15:41:37Z</time>
      </trkpt>
      <trkpt lat="42.60462" lon="2.06795">
        <ele>1808</ele>
        <time>2021-08-05T15:44:40Z</time>
      </trkpt>
      <trkpt lat="42.60428" lon="2.069">
        <ele>1801</ele>
        <time>2021-08-05T15:46:32Z</time>
      </trkpt>
      <trkpt lat="42.60428" lon="2.0703">
        <ele>1794</ele>
        <time>2021-08-05T15:48:40Z</time>
      </trkpt>
      <trkpt lat="42.6043" lon="2.07132">
        <ele>1786</ele>
        <time>2021-08-05T15:50:20Z</time>
      </trkpt>
      <trkpt lat="42.60436" lon="2.07265">
        <ele>1769</ele>
        <time>2021-08-05T15:52:31Z</time>
      </trkpt>
      <trkpt lat="42.60495" lon="2.07479">
        <ele>1752</ele>
        <time>2021-08-05T15:56:16Z</time>
      </trkpt>
      <trkpt lat="42.60534" lon="2.0764">
        <ele>1733</ele>
        <time>2021-08-05T15:59:02Z</time>
      </trkpt>
      <trkpt lat="42.60581" lon="2.07737">
        <ele>1726</ele>
        <time>2021-08-05T16:00:56Z</time>
      </trkpt>
      <trkpt lat="42.60634" lon="2.07818">
        <ele>1710</ele>
        <time>2021-08-05T16:02:43Z</time>
      </trkpt>
      <trkpt lat="42.60726" lon="2.07678">
        <ele>1701</ele>
        <time>2021-08-05T16:05:47Z</time>
      </trkpt>
      <trkpt lat="42.60805" lon="2.07625">
        <ele>1696</ele>
        <time>2021-08-05T16:07:44Z</time>
      </trkpt>
      <trkpt lat="42.60886" lon="2.07599">
        <ele>1699</ele>
        <time>2021-08-05T16:09:36Z</time>
      </trkpt>
      <trkpt lat="42.60909" lon="2.07681">
        <ele>1698</ele>
        <time>2021-08-05T16:11:02Z</time>
      </trkpt>
      <trkpt lat="42.60907" lon="2.07768">
        <ele>1693</ele>
        <time>2021-08-05T16:12:27Z</time>
      </trkpt>
      <trkpt lat="42.6091" lon="2.07825">
        <ele>1689</ele>
        <time>2021-08-05T16:13:23Z</time>
      </trkpt>
      <trkpt lat="42.60967" lon="2.07971">
        <ele>1680</ele>
        <time>2021-08-05T16:16:06Z</time>
      </trkpt>
      <trkpt lat="42.61062" lon="2.08085">
        <ele>1665</ele>
        <time>2021-08-05T16:18:55Z</time>
      </trkpt>
      <trkpt lat="42.61151" lon="2.0815">
        <ele>1653</ele>
        <time>2021-08-05T16:21:10Z</time>
      </trkpt>
      <trkpt lat="42.61223" lon="2.08233">
        <ele>1637</ele>
        <time>2021-08-05T16:23:16Z</time>
      </trkpt>
      <trkpt lat="42.61167" lon="2.08338">
        <ele>1632</ele>
        <time>2021-08-05T16:25:23Z</time>
      </trkpt>
      <trkpt lat="42.6117" lon="2.08398">
        <ele>1630</ele>
        <time>2021-08-05T16:26:22Z</time>
      </trkpt>
      <trkpt lat="42.61102" lon="2.08486">
        <ele>1623</ele>
        <time>2021-08-05T16:28:27Z</time>
      </trkpt>
      <trkpt lat="42.60998" lon="2.08469">
        <ele>1620</ele>
        <time>2021-08-05T16:30:47Z</time>
      </trkpt>
      <trkpt lat="42.60944" lon="2.08437">
        <ele>1622</ele>
        <time>2021-08-05T16:32:06Z</time>
      </trkpt>
      <trkpt lat="42.60901" lon="2.08454">
        <ele>1616</ele>
        <time>2021-08-05T16:33:05Z</time>
      </trkpt>
      <trkpt lat="42.60865" lon="2.08439">
        <ele>1615</ele>
        <time>2021-08-05T16:33:56Z</time>
      </trkpt>
      <trkpt lat="42.60825" lon="2.08437">
        <ele>1612</ele>
        <time>2021-08-05T16:34:49Z</time>
      </trkpt>
      <trkpt lat="42.608" lon="2.08459">
        <ele>1607</ele>
        <time>2021-08-05T16:35:29Z</time>
      </trkpt>
      <trkpt lat="42.60799" lon="2.08525">
        <ele>1605</ele>
        <time>2021-08-05T16:36:34Z</time>
      </trkpt>
      <trkpt lat="42.60732" lon="2.08472">
        <ele>1596</ele>
        <time>2021-08-05T16:38:17Z</time>
      </trkpt>
      <trkpt lat="42.60709" lon="2.08446">
        <ele>1594</ele>
        <time>2021-08-05T16:38:57Z</time>
      </trkpt>
      <trkpt lat="42.60647" lon="2.08491">
        <ele>1591</ele>
        <time>2021-08-05T16:40:31Z</time>
      </trkpt>
      <trkpt lat="42.60619" lon="2.08433">
        <ele>1592</ele>
        <time>2021-08-05T16:41:39Z</time>
      </trkpt>
      <trkpt lat="42.60573" lon="2.08412">
        <ele>1593</ele>
        <time>2021-08-05T16:42:44Z</time>
      </trkpt>
      <trkpt lat="42.60506" lon="2.08399">
        <ele>1599</ele>
        <time>2021-08-05T16:44:14Z</time>
      </trkpt>
      <trkpt lat="42.60519" lon="2.08463">
        <ele>1599</ele>
        <time>2021-08-05T16:45:19Z</time>
      </trkpt>
      <trkpt lat="42.60582" lon="2.08478">
        <ele>1594</ele>
        <time>2021-08-05T16:46:45Z</time>
      </trkpt>
      <trkpt lat="42.60595" lon="2.08527">
        <ele>1594</ele>
        <time>2021-08-05T16:47:36Z</time>
      </trkpt>
      <trkpt lat="42.60589" lon="2.08594">
        <ele>1595</ele>
        <time>2021-08-05T16:48:42Z</time>
      </trkpt>
      <trkpt lat="42.6056" lon="2.08663">
        <ele>1595</ele>
        <time>2021-08-05T16:50:00Z</time>
      </trkpt>
      <trkpt lat="42.60525" lon="2.08706">
        <ele>1602</ele>
        <time>2021-08-05T16:51:03Z</time>
      </trkpt>
      <trkpt lat="42.60632" lon="2.0879">
        <ele>1595</ele>
        <time>2021-08-05T16:53:48Z</time>
      </trkpt>
      <trkpt lat="42.60706" lon="2.08921">
        <ele>1593</ele>
        <time>2021-08-05T16:56:30Z</time>
      </trkpt>
      <trkpt lat="42.60761" lon="2.09026">
        <ele>1593</ele>
        <time>2021-08-05T16:58:37Z</time>
      </trkpt>
      <trkpt lat="42.60826" lon="2.09127">
        <ele>1591</ele>
        <time>2021-08-05T17:00:49Z</time>
      </trkpt>
      <trkpt lat="42.60864" lon="2.09196">
        <ele>1592</ele>
        <time>2021-08-05T17:02:13Z</time>
      </trkpt>
      <trkpt lat="42.60906" lon="2.0929">
        <ele>1592</ele>
        <time>2021-08-05T17:04:01Z</time>
      </trkpt>
      <trkpt lat="42.6097" lon="2.09384">
        <ele>1587</ele>
        <time>2021-08-05T17:06:07Z</time>
      </trkpt>
      <trkpt lat="42.6099" lon="2.09466">
        <ele>1590</ele>
        <time>2021-08-05T17:07:32Z</time>
      </trkpt>
      <trkpt lat="42.61019" lon="2.0955">
        <ele>1588</ele>
        <time>2021-08-05T17:09:03Z</time>
      </trkpt>
      <trkpt lat="42.61" lon="2.09595">
        <ele>1590</ele>
        <time>2021-08-05T17:09:54Z</time>
      </trkpt>
      <trkpt lat="42.60971" lon="2.09623">
        <ele>1592</ele>
        <time>2021-08-05T17:10:41Z</time>
      </trkpt>
      <trkpt lat="42.60963" lon="2.09645">
        <ele>1592</ele>
        <time>2021-08-05T17:11:06Z</time>
      </trkpt>
      <trkpt lat="42.61004" lon="2.09765">
        <ele>1587</ele>
        <time>2021-08-05T17:13:15Z</time>
      </trkpt>
      <trkpt lat="42.61072" lon="2.09818">
        <ele>1577</ele>
        <time>2021-08-05T17:15:00Z</time>
      </trkpt>
      <trkpt lat="42.61147" lon="2.09849">
        <ele>1563</ele>
        <time>2021-08-05T17:16:45Z</time>
      </trkpt>
      <trkpt lat="42.61212" lon="2.09924">
        <ele>1547</ele>
        <time>2021-08-05T17:18:38Z</time>
      </trkpt>
      <trkpt lat="42.61301" lon="2.10059">
        <ele>1526</ele>
        <time>2021-08-05T17:21:36Z</time>
      </trkpt>
      <trkpt lat="42.61317" lon="2.10149">
        <ele>1520</ele>
        <time>2021-08-05T17:23:07Z</time>
      </trkpt>
      <trkpt lat="42.61335" lon="2.10218">
        <ele>1514</ele>
        <time>2021-08-05T17:24:19Z</time>
      </trkpt>
      <trkpt lat="42.61423" lon="2.10257">
        <ele>1511</ele>
        <time>2021-08-05T17:26:23Z</time>
      </trkpt>
    </trkseg>
  </trk>
</gpx>